Time;durP1;ratioP1;P1;durP2;ratioP2;P2;SDS_P1;SDS_P2;PMS_P1;PMS_P2;Temp;Humidity;BMP_temperature;BMP_pressure;BME280_temperature;BME280_humidity;BME280_pressure;Samples;Min_cycle;Max_cycle;Signal;HPM_P1;HPM_P2
2023/08/01 00:01:06;;;;;;;3.53;0.70;;;20.30;99.90;;;;;;5021954;28;20688;-24
2023/08/01 00:03:34;;;;;;;1.35;0.80;;;20.30;99.90;;;;;;5023948;28;20243;-24
2023/08/01 00:06:03;;;;;;;0.98;0.82;;;20.30;99.90;;;;;;5032180;28;20200;-23
2023/08/01 00:08:34;;;;;;;1.00;0.63;;;20.30;99.90;;;;;;5022187;28;20221;-23
2023/08/01 00:11:01;;;;;;;3.13;1.00;;;20.20;99.90;;;;;;5031539;28;20702;-23
2023/08/01 00:13:28;;;;;;;2.95;1.05;;;20.20;99.90;;;;;;5022937;28;20220;-23
2023/08/01 00:15:58;;;;;;;1.10;0.82;;;20.10;99.90;;;;;;5044695;28;20260;-23
2023/08/01 00:18:30;;;;;;;0.90;0.80;;;20.10;99.90;;;;;;5005520;28;20217;-23
2023/08/01 00:20:58;;;;;;;2.33;0.97;;;20.10;99.90;;;;;;5025065;28;20201;-23
2023/08/01 00:23:25;;;;;;;1.02;0.90;;;20.10;99.90;;;;;;5035620;28;20236;-23
2023/08/01 00:25:55;;;;;;;1.13;1.02;;;20.00;99.90;;;;;;5036511;28;20233;-24
2023/08/01 00:28:26;;;;;;;1.30;0.98;;;20.00;99.90;;;;;;5028854;28;20193;-23
2023/08/01 00:31:08;;;;;;;2.50;1.20;;;20.00;99.90;;;;;;5012254;28;20438;-24
2023/08/01 00:33:36;;;;;;;1.98;1.08;;;20.00;99.90;;;;;;5027604;28;20203;-24
2023/08/01 00:36:08;;;;;;;1.70;1.20;;;20.00;99.90;;;;;;5028619;28;20695;-24
2023/08/01 00:38:36;;;;;;;2.10;1.20;;;20.00;99.90;;;;;;5027753;28;20232;-23
2023/08/01 00:41:04;;;;;;;3.50;1.30;;;19.90;99.90;;;;;;5039173;28;20204;-23
2023/08/01 00:43:33;;;;;;;1.80;1.40;;;19.90;99.90;;;;;;5044440;28;20216;-24
2023/08/01 00:46:03;;;;;;;2.03;1.60;;;19.90;99.90;;;;;;5048325;28;20223;-24
2023/08/01 00:48:31;;;;;;;2.83;1.40;;;19.90;99.90;;;;;;5048310;28;20291;-22
2023/08/01 00:51:03;;;;;;;2.65;1.33;;;19.80;99.90;;;;;;5047190;28;20266;-23
2023/08/01 00:53:39;;;;;;;2.33;1.45;;;19.80;99.90;;;;;;5047636;28;20710;-23
2023/08/01 00:56:06;;;;;;;2.35;1.73;;;19.80;99.90;;;;;;5048470;28;20205;-23
2023/08/01 00:58:33;;;;;;;4.27;1.67;;;19.80;99.90;;;;;;5036671;28;20221;-24
2023/08/01 01:01:03;;;;;;;2.67;1.45;;;19.70;99.90;;;;;;5027880;28;20227;-23
2023/08/01 01:03:33;;;;;;;2.83;1.85;;;19.70;99.90;;;;;;5014303;28;20229;-28
2023/08/01 01:06:01;;;;;;;2.47;1.50;;;19.70;99.90;;;;;;5014259;28;20197;-28
2023/08/01 01:08:33;;;;;;;4.30;1.70;;;19.70;99.90;;;;;;5011918;28;20690;-28
2023/08/01 01:11:01;;;;;;;3.20;1.80;;;19.60;99.90;;;;;;5023662;28;20220;-29
2023/08/01 01:13:29;;;;;;;3.55;1.80;;;19.60;99.90;;;;;;5031249;28;20277;-28
2023/08/01 01:15:59;;;;;;;2.73;1.80;;;19.60;99.90;;;;;;5019096;28;20321;-29
2023/08/01 01:18:26;;;;;;;3.20;1.70;;;19.60;99.90;;;;;;5040927;28;20212;-28
2023/08/01 01:20:53;;;;;;;2.23;1.60;;;19.60;99.90;;;;;;5028034;28;20283;-28
2023/08/01 01:23:25;;;;;;;3.20;1.83;;;19.60;99.90;;;;;;5028264;28;20320;-28
2023/08/01 01:25:56;;;;;;;4.10;2.05;;;19.60;99.90;;;;;;5028397;28;20482;-28
2023/08/01 01:28:26;;;;;;;3.90;2.10;;;19.50;99.90;;;;;;5006231;28;20645;-28
2023/08/01 01:31:02;;;;;;;3.27;2.07;;;19.50;99.90;;;;;;5009567;28;20627;-28
2023/08/01 01:33:31;;;;;;;4.00;2.30;;;19.50;99.90;;;;;;5024788;28;20627;-29
2023/08/01 01:36:01;;;;;;;3.60;1.88;;;19.50;99.90;;;;;;5027453;28;20239;-23
2023/08/01 01:38:30;;;;;;;4.18;2.10;;;19.50;99.90;;;;;;5024868;28;20228;-23
2023/08/01 01:41:00;;;;;;;4.63;2.40;;;19.40;99.90;;;;;;5009874;28;20354;-23
2023/08/01 01:43:27;;;;;;;4.72;2.40;;;19.40;99.90;;;;;;5025887;28;20270;-23
2023/08/01 01:46:00;;;;;;;4.85;2.47;;;19.40;99.90;;;;;;5026593;28;20201;-23
2023/08/01 01:48:27;;;;;;;5.78;2.40;;;19.40;99.90;;;;;;5026755;28;20225;-23
2023/08/01 01:50:54;;;;;;;3.40;2.10;;;19.30;99.90;;;;;;5025821;28;20255;-23
2023/08/01 01:53:22;;;;;;;3.85;2.72;;;19.30;99.90;;;;;;5026175;28;20197;-23
2023/08/01 01:55:54;;;;;;;2.75;2.22;;;19.30;99.90;;;;;;5025575;28;20648;-23
2023/08/01 01:58:21;;;;;;;4.93;2.60;;;19.30;99.90;;;;;;5010009;28;20208;-28
2023/08/01 02:00:54;;;;;;;5.30;2.90;;;19.30;99.90;;;;;;5027065;28;20209;-28
2023/08/01 02:03:23;;;;;;;4.70;2.30;;;19.20;99.90;;;;;;5020811;28;20232;-29
2023/08/01 02:05:51;;;;;;;6.70;2.72;;;19.20;99.90;;;;;;5019831;28;20219;-29
2023/08/01 02:08:18;;;;;;;5.27;3.00;;;19.20;99.90;;;;;;5025871;28;20339;-29
2023/08/01 02:10:45;;;;;;;3.93;2.63;;;19.20;99.90;;;;;;5027512;28;20189;-28
2023/08/01 02:13:12;;;;;;;5.07;3.30;;;19.20;99.90;;;;;;5028096;28;20229;-28
2023/08/01 02:15:41;;;;;;;4.90;2.80;;;19.20;99.90;;;;;;5047267;28;20212;-29
2023/08/01 02:18:11;;;;;;;6.00;3.00;;;19.20;99.90;;;;;;5046628;28;20690;-28
2023/08/01 02:20:39;;;;;;;5.10;2.67;;;19.20;99.90;;;;;;5046992;28;20200;-28
2023/08/01 02:23:06;;;;;;;5.82;2.53;;;19.20;99.90;;;;;;5035913;28;20246;-28
2023/08/01 02:25:41;;;;;;;6.17;3.00;;;19.20;99.90;;;;;;5005905;28;20296;-28
2023/08/01 02:28:08;;;;;;;3.50;2.97;;;19.20;99.90;;;;;;5021596;28;20221;-28
2023/08/01 02:30:41;;;;;;;3.73;2.77;;;19.10;99.90;;;;;;5005429;28;20290;-28
2023/08/01 02:33:13;;;;;;;2.83;2.20;;;19.20;99.90;;;;;;5023155;28;20201;-29
2023/08/01 02:35:41;;;;;;;5.47;2.85;;;19.10;99.90;;;;;;5025029;28;20205;-29
2023/08/01 02:38:08;;;;;;;7.68;3.05;;;19.10;99.90;;;;;;5005851;28;20256;-28
2023/08/01 02:40:37;;;;;;;3.97;2.80;;;19.10;99.90;;;;;;5021112;28;20224;-28
2023/08/01 02:43:07;;;;;;;5.80;3.30;;;19.10;99.90;;;;;;5022795;28;20715;-29
2023/08/01 02:45:35;;;;;;;5.00;2.80;;;19.10;99.90;;;;;;5003739;28;20222;-29
2023/08/01 02:48:04;;;;;;;5.88;3.00;;;19.20;99.90;;;;;;5005013;28;20209;-29
2023/08/01 02:50:31;;;;;;;7.30;3.20;;;19.10;99.90;;;;;;5021900;28;20212;-28
2023/08/01 02:53:04;;;;;;;7.70;3.63;;;19.10;99.90;;;;;;5023637;28;20252;-29
2023/08/01 02:55:34;;;;;;;8.25;3.80;;;19.10;99.90;;;;;;5025195;28;20216;-29
2023/08/01 02:58:03;;;;;;;6.20;3.30;;;19.10;99.90;;;;;;5020733;28;20288;-29
2023/08/01 03:00:35;;;;;;;4.80;3.58;;;19.10;99.90;;;;;;5008126;28;20248;-28
2023/08/01 03:03:03;;;;;;;5.70;4.00;;;19.00;99.90;;;;;;5025656;28;20280;-29
2023/08/01 03:05:32;;;;;;;6.05;4.00;;;19.00;99.90;;;;;;5027523;28;20201;-28
2023/08/01 03:08:02;;;;;;;7.93;4.27;;;19.00;99.90;;;;;;5027083;28;20189;-29
2023/08/01 03:10:30;;;;;;;8.30;4.50;;;19.00;99.90;;;;;;5027568;28;20200;-28
2023/08/01 03:13:03;;;;;;;7.43;4.10;;;19.00;99.90;;;;;;5029135;28;20210;-29
2023/08/01 03:15:33;;;;;;;7.43;4.27;;;19.00;99.90;;;;;;5028447;28;20286;-29
2023/08/01 03:18:00;;;;;;;6.00;4.10;;;19.00;99.90;;;;;;5023908;28;20233;-29
2023/08/01 03:20:27;;;;;;;6.77;4.50;;;19.00;99.90;;;;;;5024225;28;20247;-29
2023/08/01 03:22:54;;;;;;;6.50;4.27;;;19.00;99.90;;;;;;5024588;28;20220;-29
2023/08/01 03:25:24;;;;;;;7.13;3.90;;;19.00;99.90;;;;;;5023626;28;20675;-29
2023/08/01 03:27:51;;;;;;;8.80;4.40;;;18.90;99.90;;;;;;5023821;28;20266;-29
2023/08/01 03:30:21;;;;;;;9.33;4.50;;;18.90;99.90;;;;;;5028743;28;20698;-29
2023/08/01 03:32:48;;;;;;;8.40;4.30;;;18.90;99.90;;;;;;5024280;28;20204;-29
2023/08/01 03:35:15;;;;;;;7.32;4.00;;;18.90;99.90;;;;;;5025853;28;20221;-29
2023/08/01 03:37:43;;;;;;;10.17;4.20;;;18.90;99.90;;;;;;5024223;28;20995;-29
2023/08/01 03:40:10;;;;;;;6.23;4.20;;;18.90;99.90;;;;;;5023913;28;20764;-29
2023/08/01 03:42:42;;;;;;;6.57;4.27;;;18.90;99.90;;;;;;5024827;28;20221;-29
2023/08/01 03:45:10;;;;;;;7.97;4.03;;;18.90;99.90;;;;;;5023936;28;20223;-29
2023/08/01 03:47:41;;;;;;;6.60;4.10;;;18.90;99.90;;;;;;5031481;28;20727;-30
2023/08/01 03:50:09;;;;;;;8.10;4.57;;;18.90;99.90;;;;;;5045194;28;20251;-28
2023/08/01 03:52:38;;;;;;;6.73;4.10;;;18.90;99.90;;;;;;5023922;28;20259;-29
2023/08/01 03:55:10;;;;;;;9.23;4.90;;;18.90;99.90;;;;;;5009279;28;20295;-29
2023/08/01 03:57:38;;;;;;;12.13;5.10;;;18.90;99.90;;;;;;5009993;28;20213;-29
2023/08/01 04:00:13;;;;;;;7.97;4.83;;;18.90;99.90;;;;;;5011603;28;20751;-29
2023/08/01 04:02:41;;;;;;;10.17;4.40;;;18.90;99.90;;;;;;5010694;28;20294;-29
2023/08/01 04:05:13;;;;;;;9.23;4.63;;;18.90;99.90;;;;;;5021924;28;20270;-29
2023/08/01 04:07:43;;;;;;;7.50;4.90;;;18.90;99.90;;;;;;5028228;28;20209;-29
2023/08/01 04:10:13;;;;;;;8.27;4.75;;;18.80;99.90;;;;;;5028369;28;20200;-29
2023/08/01 04:12:43;;;;;;;7.67;4.50;;;18.80;99.90;;;;;;5029085;28;20754;-28
2023/08/01 04:15:12;;;;;;;6.77;4.50;;;18.80;99.90;;;;;;5027604;28;20644;-29
2023/08/01 04:17:39;;;;;;;10.13;4.50;;;18.80;99.90;;;;;;5027399;28;20267;-28
2023/08/01 04:20:07;;;;;;;8.60;4.57;;;18.80;99.90;;;;;;5037946;28;20296;-29
2023/08/01 04:22:37;;;;;;;8.80;4.60;;;18.80;99.90;;;;;;5030954;28;20239;-29
2023/08/01 04:25:07;;;;;;;9.05;4.57;;;18.80;99.90;;;;;;5027654;28;20216;-29
2023/08/01 04:27:34;;;;;;;8.07;4.30;;;18.80;99.90;;;;;;5029070;28;20201;-30
2023/08/01 04:30:02;;;;;;;8.73;4.33;;;18.80;99.90;;;;;;5028053;28;20679;-30
2023/08/01 04:32:29;;;;;;;8.68;4.35;;;18.80;99.90;;;;;;5004787;28;20198;-30
2023/08/01 04:34:56;;;;;;;7.77;4.50;;;18.80;99.90;;;;;;5012564;28;20223;-30
2023/08/01 04:37:23;;;;;;;7.40;4.20;;;18.80;99.90;;;;;;5009613;28;20311;-29
2023/08/01 04:39:53;;;;;;;9.20;4.40;;;18.80;99.90;;;;;;5022183;28;20229;-30
2023/08/01 04:42:22;;;;;;;10.13;4.40;;;18.80;99.90;;;;;;5021557;28;20285;-30
2023/08/01 04:44:49;;;;;;;7.40;4.83;;;18.80;99.90;;;;;;5016146;28;20204;-29
2023/08/01 04:47:16;;;;;;;9.57;4.97;;;18.80;99.90;;;;;;5024084;28;20737;-29
2023/08/01 04:49:44;;;;;;;9.87;5.17;;;18.80;99.90;;;;;;5027624;28;20219;-30
2023/08/01 04:52:11;;;;;;;11.33;5.60;;;18.80;99.90;;;;;;5044091;28;20224;-29
2023/08/01 04:54:43;;;;;;;14.40;6.00;;;18.80;99.90;;;;;;5024461;28;20264;-29
2023/08/01 04:57:10;;;;;;;10.27;5.87;;;18.80;99.90;;;;;;5025691;28;20229;-29
2023/08/01 04:59:37;;;;;;;11.20;6.00;;;18.80;99.90;;;;;;5015810;28;20225;-29
2023/08/01 05:02:04;;;;;;;9.40;5.90;;;18.80;99.90;;;;;;5010207;28;20322;-29
2023/08/01 05:04:34;;;;;;;8.60;5.90;;;18.80;99.90;;;;;;5023391;28;20244;-29
2023/08/01 05:07:01;;;;;;;10.97;6.20;;;18.80;99.90;;;;;;5031906;28;20208;-29
2023/08/01 05:09:31;;;;;;;9.97;6.03;;;18.80;99.90;;;;;;5027851;28;20745;-29
2023/08/01 05:11:58;;;;;;;10.10;5.77;;;18.80;99.90;;;;;;5027576;28;20661;-29
2023/08/01 05:14:27;;;;;;;8.27;6.13;;;18.80;99.90;;;;;;5029740;28;20221;-29
2023/08/01 05:16:54;;;;;;;16.20;6.73;;;18.80;99.90;;;;;;5020799;28;20197;-29
2023/08/01 05:19:22;;;;;;;11.10;6.00;;;18.80;99.90;;;;;;5029586;28;20424;-29
2023/08/01 05:21:49;;;;;;;11.93;5.80;;;18.80;99.90;;;;;;5017667;28;20209;-29
2023/08/01 05:24:18;;;;;;;10.73;5.60;;;18.80;99.90;;;;;;5020659;28;20225;-28
2023/08/01 05:26:45;;;;;;;9.03;5.70;;;18.80;99.90;;;;;;5027601;28;20205;-28
2023/08/01 05:29:12;;;;;;;10.32;6.07;;;18.90;99.90;;;;;;5021919;28;20683;-28
2023/08/01 05:31:40;;;;;;;11.53;6.30;;;18.80;99.90;;;;;;5023136;28;20333;-29
2023/08/01 05:34:07;;;;;;;11.20;6.27;;;18.90;99.90;;;;;;5017067;28;20221;-29
2023/08/01 05:36:35;;;;;;;15.20;6.87;;;18.90;99.90;;;;;;5030479;28;20556;-28
2023/08/01 05:39:03;;;;;;;11.13;5.50;;;18.90;99.90;;;;;;5030187;28;20310;-29
2023/08/01 05:41:38;;;;;;;9.20;5.33;;;18.90;99.90;;;;;;5023540;28;20566;-29
2023/08/01 05:44:14;;;;;;;10.20;5.70;;;18.90;99.90;;;;;;5023943;28;20236;-29
2023/08/01 05:46:42;;;;;;;11.37;5.87;;;18.90;99.90;;;;;;5018291;28;20470;-29
2023/08/01 05:49:19;;;;;;;13.40;6.17;;;18.90;99.90;;;;;;5031230;28;20204;-29
2023/08/01 05:51:47;;;;;;;13.43;5.77;;;19.00;99.90;;;;;;5044908;28;20294;-29
2023/08/01 05:54:16;;;;;;;14.17;5.97;;;18.90;99.90;;;;;;5031378;28;20209;-29
2023/08/01 05:56:46;;;;;;;13.63;6.53;;;18.90;99.90;;;;;;5015530;28;20295;-28
2023/08/01 05:59:19;;;;;;;9.80;4.90;;;19.00;99.90;;;;;;5007799;28;20260;-29
2023/08/01 06:01:49;;;;;;;11.37;5.40;;;18.90;99.90;;;;;;5008638;28;20243;-29
2023/08/01 06:04:19;;;;;;;10.40;5.87;;;18.90;99.90;;;;;;5010502;28;20233;-32
2023/08/01 06:06:49;;;;;;;10.27;5.30;;;18.90;99.90;;;;;;5006159;28;20301;-28
2023/08/01 06:09:29;;;;;;;9.60;6.13;;;18.90;99.90;;;;;;5023528;28;20211;-29
2023/08/01 06:12:00;;;;;;;17.77;6.03;;;19.00;99.90;;;;;;5025707;28;20197;-28
2023/08/01 06:14:27;;;;;;;9.80;5.90;;;18.90;99.90;;;;;;5025638;28;20228;-29
2023/08/01 06:16:54;;;;;;;10.77;6.40;;;19.00;99.90;;;;;;5024115;28;20205;-29
2023/08/01 06:19:24;;;;;;;13.30;6.20;;;19.00;99.90;;;;;;5011679;28;20839;-28
2023/08/01 06:21:55;;;;;;;10.87;6.83;;;19.00;99.90;;;;;;5018234;28;20621;-29
2023/08/01 06:24:22;;;;;;;9.60;6.20;;;19.00;99.90;;;;;;5024373;28;20617;-28
2023/08/01 06:26:56;;;;;;;11.47;6.13;;;19.00;99.90;;;;;;5023729;28;20208;-28
2023/08/01 06:29:25;;;;;;;10.30;5.87;;;19.00;99.90;;;;;;5024170;28;20213;-28
2023/08/01 06:31:54;;;;;;;13.37;6.27;;;19.10;99.90;;;;;;5025642;28;20687;-28
2023/08/01 06:34:24;;;;;;;11.67;6.13;;;19.10;99.90;;;;;;5010678;28;20204;-28
2023/08/01 06:36:53;;;;;;;11.65;6.28;;;19.20;99.90;;;;;;5030574;28;20259;-29
2023/08/01 06:39:23;;;;;;;10.40;6.03;;;19.20;99.90;;;;;;5018321;28;20735;-28
2023/08/01 06:41:50;;;;;;;9.63;5.90;;;19.20;99.90;;;;;;5013625;28;20615;-29
2023/08/01 06:44:17;;;;;;;11.50;6.45;;;19.20;99.90;;;;;;5013397;28;20656;-29
2023/08/01 06:46:52;;;;;;;11.23;6.03;;;19.20;99.90;;;;;;5019242;28;20665;-29
2023/08/01 06:49:19;;;;;;;9.20;5.90;;;19.20;99.90;;;;;;5021660;28;20233;-28
2023/08/01 06:51:48;;;;;;;11.47;5.70;;;19.20;99.90;;;;;;5019113;28;20201;-28
2023/08/01 06:54:17;;;;;;;10.85;6.57;;;19.20;99.90;;;;;;5015587;28;20204;-28
2023/08/01 06:56:47;;;;;;;10.17;6.23;;;19.20;99.90;;;;;;5022585;28;20860;-29
2023/08/01 06:59:17;;;;;;;10.52;6.10;;;19.20;99.90;;;;;;5019959;28;20676;-28
2023/08/01 07:01:45;;;;;;;12.45;6.57;;;19.20;99.90;;;;;;5020966;28;20603;-29
2023/08/01 07:04:25;;;;;;;13.03;7.37;;;19.30;99.90;;;;;;5007533;28;20237;-29
2023/08/01 07:06:55;;;;;;;11.83;7.03;;;19.30;99.90;;;;;;5030525;28;20220;-29
2023/08/01 07:09:24;;;;;;;12.67;6.93;;;19.30;99.90;;;;;;5026478;28;20212;-29
2023/08/01 07:11:52;;;;;;;12.82;6.90;;;19.30;99.90;;;;;;5014007;28;20197;-29
2023/08/01 07:14:19;;;;;;;10.17;6.47;;;19.30;99.90;;;;;;5005873;28;20212;-29
2023/08/01 07:16:46;;;;;;;17.17;7.23;;;19.40;99.90;;;;;;5024830;28;20201;-29
2023/08/01 07:19:13;;;;;;;13.13;7.10;;;19.40;99.90;;;;;;5007584;28;20750;-29
2023/08/01 07:21:47;;;;;;;9.43;6.67;;;19.40;99.90;;;;;;5021139;28;20295;-29
2023/08/01 07:24:15;;;;;;;11.18;6.70;;;19.40;99.90;;;;;;5025429;28;20228;-29
2023/08/01 07:26:42;;;;;;;10.82;6.25;;;19.50;99.90;;;;;;5017721;28;20205;-29
2023/08/01 07:29:15;;;;;;;9.87;6.37;;;19.50;99.90;;;;;;5025420;28;20205;-29
2023/08/01 07:31:45;;;;;;;9.60;5.87;;;19.50;99.90;;;;;;5025754;28;20224;-29
2023/08/01 07:34:15;;;;;;;8.97;5.33;;;19.50;99.90;;;;;;5026800;28;20318;-29
2023/08/01 07:36:43;;;;;;;7.53;5.40;;;19.50;99.90;;;;;;5031446;28;20340;-29
2023/08/01 07:39:17;;;;;;;10.40;5.75;;;19.50;99.90;;;;;;5023243;28;20763;-29
2023/08/01 07:41:50;;;;;;;10.83;5.30;;;19.50;99.90;;;;;;5020224;28;20221;-29
2023/08/01 07:44:17;;;;;;;11.30;5.27;;;19.50;99.90;;;;;;5002975;28;20597;-29
2023/08/01 07:46:44;;;;;;;8.10;5.10;;;19.50;99.90;;;;;;5017324;28;20197;-29
2023/08/01 07:49:11;;;;;;;12.95;6.05;;;19.50;99.90;;;;;;5001984;28;20227;-29
2023/08/01 07:51:41;;;;;;;9.23;5.40;;;19.50;99.90;;;;;;5025599;28;20633;-30
2023/08/01 07:54:14;;;;;;;10.23;5.13;;;19.50;99.90;;;;;;5044457;28;20204;-29
2023/08/01 07:56:49;;;;;;;10.87;5.10;;;19.60;99.90;;;;;;5013585;28;20582;-29
2023/08/01 07:59:16;;;;;;;10.05;5.10;;;19.60;99.90;;;;;;5022670;28;20220;-29
2023/08/01 08:01:46;;;;;;;10.20;4.60;;;19.70;99.90;;;;;;5005019;28;20671;-29
2023/08/01 08:04:14;;;;;;;12.50;4.83;;;19.70;99.90;;;;;;5021603;28;20217;-24
2023/08/01 08:06:41;;;;;;;8.83;4.90;;;19.70;99.90;;;;;;5010699;28;20197;-23
2023/08/01 08:09:14;;;;;;;10.37;5.37;;;19.70;99.90;;;;;;5006724;28;20706;-23
2023/08/01 08:11:44;;;;;;;9.67;5.30;;;19.70;99.90;;;;;;5006495;28;20284;-23
2023/08/01 08:14:14;;;;;;;9.73;5.13;;;19.70;99.90;;;;;;5016836;28;20224;-23
2023/08/01 08:16:44;;;;;;;9.00;5.43;;;19.70;99.90;;;;;;5006876;28;20214;-23
2023/08/01 08:19:11;;;;;;;9.63;5.40;;;19.70;99.90;;;;;;5006661;28;20240;-23
2023/08/01 08:21:39;;;;;;;9.13;4.80;;;19.80;99.90;;;;;;5018552;28;20287;-23
2023/08/01 08:24:06;;;;;;;10.70;5.17;;;19.80;99.90;;;;;;5013840;28;20294;-23
2023/08/01 08:26:37;;;;;;;11.25;5.60;;;19.80;99.90;;;;;;5015292;28;20237;-23
2023/08/01 08:29:14;;;;;;;9.85;5.53;;;19.80;99.90;;;;;;5006408;28;20205;-23
2023/08/01 08:31:41;;;;;;;10.75;5.38;;;19.90;99.90;;;;;;5013357;28;20296;-23
2023/08/01 08:34:08;;;;;;;10.97;6.00;;;19.90;99.90;;;;;;5021877;28;20333;-23
2023/08/01 08:36:38;;;;;;;10.47;5.57;;;19.90;99.90;;;;;;5032204;28;20220;-23
2023/08/01 08:39:11;;;;;;;10.50;5.67;;;19.90;99.90;;;;;;5023486;28;20336;-23
2023/08/01 08:41:48;;;;;;;9.20;5.10;;;19.90;99.90;;;;;;5026308;28;20322;-23
2023/08/01 08:44:24;;;;;;;9.15;4.55;;;19.90;99.90;;;;;;5026193;28;20601;-23
2023/08/01 08:46:53;;;;;;;10.40;4.63;;;19.90;99.90;;;;;;5027539;28;20259;-24
2023/08/01 08:49:24;;;;;;;8.27;4.50;;;20.00;99.90;;;;;;5027808;28;20675;-23
2023/08/01 08:51:54;;;;;;;12.43;4.27;;;20.00;99.90;;;;;;5029449;28;20227;-23
2023/08/01 08:54:22;;;;;;;8.03;4.13;;;20.10;99.90;;;;;;5028239;28;20217;-24
2023/08/01 08:56:49;;;;;;;7.97;4.17;;;20.10;99.90;;;;;;5025637;28;20292;-23
2023/08/01 08:59:19;;;;;;;10.68;4.28;;;20.20;99.90;;;;;;5030658;28;20651;-23
2023/08/01 09:01:51;;;;;;;7.63;3.80;;;20.20;99.90;;;;;;5037476;28;20339;-24
2023/08/01 09:04:21;;;;;;;7.97;3.50;;;20.20;99.90;;;;;;5011813;28;20690;-23
2023/08/01 09:06:55;;;;;;;8.02;3.58;;;20.20;99.90;;;;;;5014506;28;20240;-23
2023/08/01 09:09:26;;;;;;;6.83;3.93;;;20.30;99.90;;;;;;5023581;28;20254;-24
2023/08/01 09:11:56;;;;;;;7.33;3.10;;;20.20;99.90;;;;;;5021642;28;20212;-23
2023/08/01 09:14:29;;;;;;;5.53;3.03;;;20.30;99.90;;;;;;5027739;28;20205;-23
2023/08/01 09:17:06;;;;;;;6.10;3.22;;;20.30;99.90;;;;;;5022766;28;20198;-23
2023/08/01 09:19:33;;;;;;;4.65;2.92;;;20.30;99.90;;;;;;5028103;28;20223;-23
2023/08/01 09:22:01;;;;;;;7.25;3.40;;;20.20;99.90;;;;;;5036391;28;20336;-23
2023/08/01 09:24:33;;;;;;;9.45;3.03;;;20.20;99.90;;;;;;5029582;28;20226;-23
2023/08/01 09:27:08;;;;;;;5.57;3.23;;;20.20;99.90;;;;;;5021267;28;20204;-23
2023/08/01 09:29:37;;;;;;;6.32;2.90;;;20.20;99.90;;;;;;5023403;28;20232;-23
2023/08/01 09:32:14;;;;;;;6.40;3.15;;;20.20;99.90;;;;;;5021571;28;20233;-24
2023/08/01 09:34:44;;;;;;;5.18;2.70;;;20.20;99.90;;;;;;5016265;28;20212;-23
2023/08/01 09:37:15;;;;;;;6.83;3.00;;;20.20;99.90;;;;;;5024830;28;20683;-24
2023/08/01 09:39:54;;;;;;;5.20;2.47;;;20.20;99.90;;;;;;5021219;28;20217;-23
2023/08/01 09:42:24;;;;;;;6.75;2.63;;;20.20;99.90;;;;;;5027807;28;20228;-23
2023/08/01 09:44:52;;;;;;;8.00;2.80;;;20.20;99.90;;;;;;5021660;28;20314;-23
2023/08/01 09:47:20;;;;;;;6.88;2.88;;;20.20;99.90;;;;;;5013296;28;20615;-23
2023/08/01 09:49:50;;;;;;;4.72;2.30;;;20.20;99.90;;;;;;5016554;28;20528;-23
2023/08/01 09:52:27;;;;;;;8.52;3.25;;;20.20;99.90;;;;;;5024634;28;20209;-24
2023/08/01 09:54:54;;;;;;;7.23;3.53;;;20.20;99.90;;;;;;5016881;28;20220;-23
2023/08/01 09:57:29;;;;;;;10.07;3.38;;;20.30;99.90;;;;;;4999377;28;20205;-23
2023/08/01 09:59:59;;;;;;;7.22;2.70;;;20.40;99.90;;;;;;5014600;28;20276;-23
2023/08/01 10:02:34;;;;;;;6.20;2.70;;;20.40;99.90;;;;;;5025414;28;20209;-23
2023/08/01 10:05:02;;;;;;;5.30;3.00;;;20.50;99.90;;;;;;5023134;28;20220;-30
2023/08/01 10:07:31;;;;;;;5.30;2.60;;;20.50;99.90;;;;;;5017688;28;20200;-30
2023/08/01 10:10:01;;;;;;;5.50;2.67;;;20.50;99.90;;;;;;5018518;28;20197;-30
2023/08/01 10:12:32;;;;;;;4.53;2.60;;;20.60;99.90;;;;;;5027274;28;20586;-30
2023/08/01 10:15:03;;;;;;;4.67;2.70;;;20.50;99.90;;;;;;5025485;28;20205;-30
2023/08/01 10:17:39;;;;;;;5.65;2.47;;;20.50;99.90;;;;;;5026863;28;20397;-30
2023/08/01 10:20:08;;;;;;;7.45;3.40;;;20.50;99.90;;;;;;5016461;28;20343;-30
2023/08/01 10:22:36;;;;;;;4.72;3.25;;;20.50;99.90;;;;;;5025684;28;20221;-30
2023/08/01 10:25:07;;;;;;;6.40;3.20;;;20.50;99.90;;;;;;5025427;28;20641;-29
2023/08/01 10:27:35;;;;;;;4.63;3.30;;;20.50;99.90;;;;;;5015304;28;20255;-30
2023/08/01 10:30:06;;;;;;;7.63;3.30;;;20.50;99.90;;;;;;5013686;28;20275;-30
2023/08/01 10:32:39;;;;;;;5.40;3.00;;;20.50;99.90;;;;;;5016069;28;20297;-30
2023/08/01 10:35:08;;;;;;;4.55;2.80;;;20.60;99.90;;;;;;5006846;28;20267;-30
2023/08/01 10:37:42;;;;;;;5.78;3.80;;;20.50;99.90;;;;;;5019110;28;20233;-30
2023/08/01 10:40:10;;;;;;;4.80;3.20;;;20.60;99.90;;;;;;5014676;28;20690;-30
2023/08/01 10:42:47;;;;;;;6.95;3.97;;;20.60;99.90;;;;;;5014015;28;20212;-30
2023/08/01 10:45:25;;;;;;;6.60;3.50;;;20.60;99.90;;;;;;5014118;28;20288;-30
2023/08/01 10:48:12;;;;;;;4.65;2.78;;;20.70;99.90;;;;;;5021817;28;20201;-30
2023/08/01 10:50:40;;;;;;;5.80;3.33;;;20.70;99.90;;;;;;5021156;28;20274;-30
2023/08/01 10:53:09;;;;;;;6.27;3.13;;;20.80;99.90;;;;;;5020129;28;20217;-30
2023/08/01 10:55:48;;;;;;;5.80;3.20;;;20.80;99.90;;;;;;5016608;28;20215;-31
2023/08/01 10:58:16;;;;;;;5.97;3.00;;;20.80;99.90;;;;;;5018402;28;20583;-24
2023/08/01 11:00:43;;;;;;;6.25;2.88;;;20.90;99.90;;;;;;5022456;28;20213;-24
2023/08/01 11:03:12;;;;;;;6.60;3.08;;;21.00;99.90;;;;;;5014457;28;20425;-24
2023/08/01 11:05:40;;;;;;;6.77;3.10;;;21.00;99.90;;;;;;5016225;28;20244;-24
2023/08/01 11:08:07;;;;;;;3.55;2.42;;;21.00;99.90;;;;;;5007697;28;20224;-24
2023/08/01 11:10:38;;;;;;;5.80;2.88;;;21.00;99.90;;;;;;5014219;28;20208;-24
2023/08/01 11:13:05;;;;;;;3.35;2.15;;;21.10;99.90;;;;;;5015875;28;20212;-23
2023/08/01 11:15:37;;;;;;;3.88;2.58;;;21.10;99.90;;;;;;5032020;28;20229;-24
2023/08/01 11:18:04;;;;;;;5.30;2.42;;;21.20;99.90;;;;;;5019208;28;20229;-23
2023/08/01 11:20:41;;;;;;;6.47;2.35;;;21.20;99.90;;;;;;5016608;28;20667;-23
2023/08/01 11:23:13;;;;;;;5.13;2.50;;;21.30;99.90;;;;;;5022231;28;20232;-23
2023/08/01 11:25:43;;;;;;;5.70;2.43;;;21.30;99.90;;;;;;5021100;28;20228;-24
2023/08/01 11:28:13;;;;;;;4.43;1.95;;;21.30;99.90;;;;;;5021799;28;20770;-24
2023/08/01 11:30:41;;;;;;;4.15;2.30;;;21.30;99.90;;;;;;4981111;28;20226;-23
2023/08/01 11:33:22;;;;;;;6.82;1.90;;;21.30;99.90;;;;;;5013063;28;20215;-24
2023/08/01 11:35:57;;;;;;;6.22;2.33;;;21.30;99.90;;;;;;5024953;28;20266;-24
2023/08/01 11:38:29;;;;;;;3.58;2.10;;;21.30;99.90;;;;;;5014034;28;20786;-24
2023/08/01 11:40:57;;;;;;;5.13;2.28;;;21.30;99.90;;;;;;5017527;28;20682;-24
2023/08/01 11:43:26;;;;;;;4.95;2.47;;;21.40;99.90;;;;;;5012062;28;20491;-24
2023/08/01 11:45:59;;;;;;;7.50;2.08;;;21.30;99.90;;;;;;5019915;28;20252;-24
2023/08/01 11:48:29;;;;;;;5.28;2.20;;;21.30;99.90;;;;;;5000011;28;20648;-24
2023/08/01 11:50:58;;;;;;;5.28;2.25;;;21.30;99.90;;;;;;5017968;28;20201;-24
2023/08/01 11:53:25;;;;;;;5.00;2.42;;;21.20;99.90;;;;;;5020868;28;20219;-24
2023/08/01 11:55:57;;;;;;;4.57;2.90;;;21.20;99.90;;;;;;5026306;28;20578;-24
2023/08/01 11:58:29;;;;;;;5.30;2.55;;;21.10;99.90;;;;;;5022805;28;20239;-24
2023/08/01 12:01:07;;;;;;;4.00;2.30;;;21.10;99.90;;;;;;5025053;28;20205;-24
2023/08/01 12:03:58;;;;;;;4.47;2.53;;;21.10;99.90;;;;;;5024541;28;20756;-24
2023/08/01 12:06:25;;;;;;;6.05;2.60;;;21.10;99.90;;;;;;5020100;28;20260;-24
2023/08/01 12:08:53;;;;;;;4.80;2.22;;;21.10;99.90;;;;;;5013100;28;20201;-24
2023/08/01 12:11:29;;;;;;;6.40;3.08;;;21.20;99.90;;;;;;5021015;28;20284;-24
2023/08/01 12:14:09;;;;;;;5.38;2.65;;;21.30;99.90;;;;;;5024069;28;20299;-24
2023/08/01 12:16:37;;;;;;;6.93;2.50;;;21.30;99.90;;;;;;5015859;28;20611;-24
2023/08/01 12:19:07;;;;;;;7.07;2.85;;;21.30;99.90;;;;;;5026240;28;20232;-24
2023/08/01 12:21:38;;;;;;;7.35;2.65;;;21.40;99.90;;;;;;5015418;28;20213;-24
2023/08/01 12:24:07;;;;;;;8.27;2.72;;;21.40;99.90;;;;;;5022927;28;20327;-24
2023/08/01 12:26:37;;;;;;;6.55;2.58;;;21.50;99.90;;;;;;5029660;28;20260;-30
2023/08/01 12:29:13;;;;;;;5.95;2.25;;;21.50;99.90;;;;;;5028716;28;20793;-30
2023/08/01 12:31:40;;;;;;;5.82;2.45;;;21.50;99.90;;;;;;5022302;28;20576;-31
2023/08/01 12:34:07;;;;;;;5.03;2.13;;;21.50;99.90;;;;;;5020115;28;20201;-31
2023/08/01 12:36:37;;;;;;;4.07;1.88;;;21.50;99.90;;;;;;5020388;28;20298;-30
2023/08/01 12:39:10;;;;;;;6.18;1.90;;;21.50;99.90;;;;;;5006997;28;20242;-31
2023/08/01 12:41:38;;;;;;;4.97;1.88;;;21.50;99.90;;;;;;5008521;28;20212;-30
2023/08/01 12:44:05;;;;;;;4.55;1.80;;;21.50;99.90;;;;;;5021864;28;20229;-31
2023/08/01 12:46:32;;;;;;;3.17;1.50;;;21.50;99.90;;;;;;5007004;28;20237;-30
2023/08/01 12:49:04;;;;;;;4.38;1.55;;;21.50;99.90;;;;;;5036617;28;20201;-31
2023/08/01 12:51:31;;;;;;;5.38;1.42;;;21.40;99.90;;;;;;5018757;28;20292;-31
2023/08/01 12:54:01;;;;;;;2.63;1.48;;;21.40;99.90;;;;;;5009817;28;20291;-31
2023/08/01 12:56:30;;;;;;;3.53;1.60;;;21.30;99.90;;;;;;5031456;28;20672;-31
2023/08/01 12:59:02;;;;;;;3.08;1.48;;;21.40;99.90;;;;;;5023961;28;20247;-31